This is the latest recevied weather packets stored in our database for station/object W7PLC. If no packets are shown the sender has not sent any weather packets the latest 10 day(s).
| Time | Temp. | Humidity | Pressure | Rain* | Wind** | Luminosity | Snow |
|---|---|---|---|---|---|---|---|
| 1777841409 | 28.89° C | 40% | 1010 hPa | 0 mm | - | 697 W/m² | - |
| 1777841106 | 28.89° C | 40% | 1010 hPa | 0 mm | - | 693 W/m² | - |
| 1777840802 | 28.33° C | 42% | 1010.1 hPa | 0 mm | - | 674 W/m² | - |
| 1777840500 | 27.78° C | 41% | 1010.2 hPa | 0 mm | - | 669 W/m² | - |
| 1777840196 | 27.78° C | 41% | 1010.2 hPa | 0 mm | - | 703 W/m² | - |
| 1777839895 | 27.22° C | 43% | 1010.1 hPa | 0 mm | - | 704 W/m² | - |
| 1777839593 | 27.78° C | 43% | 1010.5 hPa | 0 mm | - | 721 W/m² | - |
| 1777839290 | 28.33° C | 43% | 1010.5 hPa | 0 mm | - | 684 W/m² | - |
| 1777838987 | 28.33° C | 41% | 1010.5 hPa | 0 mm | - | 651 W/m² | - |
| 1777838684 | 27.78° C | 42% | 1010.5 hPa | 0 mm | - | 695 W/m² | - |
| 1777838380 | 28.33° C | 42% | 1010.9 hPa | 0 mm | - | 685 W/m² | - |
| 1777838078 | 27.78° C | 43% | 1010.7 hPa | 0 mm | - | 680 W/m² | - |
| 1777837774 | 27.78° C | 43% | 1010.9 hPa | 0 mm | - | 635 W/m² | - |
| 1777837471 | 26.67° C | 45% | 1011 hPa | 0 mm | - | 620 W/m² | - |
| 1777837166 | 27.22° C | 43% | 1010.9 hPa | 0 mm | - | 675 W/m² | - |
| 1777836862 | 26.67° C | 46% | 1010.9 hPa | 0 mm | - | 658 W/m² | - |
| 1777836558 | 26.67° C | 44% | 1011.1 hPa | 0 mm | - | 587 W/m² | - |
| 1777836255 | 27.22° C | 45% | 1011.1 hPa | 0 mm | - | 631 W/m² | - |
| 1777835950 | 26.67° C | 46% | 1011 hPa | 0 mm | - | 681 W/m² | - |
| 1777835648 | 26.67° C | 45% | 1011.1 hPa | 0 mm | - | 655 W/m² | - |
| 1777835344 | 26.11° C | 47% | 1011.5 hPa | 0 mm | - | 647 W/m² | - |
| 1777835042 | 25.56° C | 47% | 1011.2 hPa | 0 mm | - | 639 W/m² | - |
| 1777834738 | 26.11° C | 47% | 1011.4 hPa | 0 mm | - | 609 W/m² | - |
| 1777834434 | 26.11° C | 47% | 1011.4 hPa | 0 mm | - | 632 W/m² | - |
| 1777834134 | 25.56° C | 47% | 1011.5 hPa | 0 mm | - | 666 W/m² | - |
* Rain latest hour (hover to see other rain measurements)
** Current wind speed in m/s (hover to see current wind gust speed)